createdAt,value
2023-03-04T00:01:25.008Z,60.46
2023-03-04T00:04:36.620Z,61.19
2023-03-04T00:07:51.429Z,61.11
2023-03-04T00:10:56.482Z,61.13
2023-03-04T00:14:10.992Z,60.52
2023-03-04T00:17:21.329Z,60.46
2023-03-04T00:20:33.908Z,60.62
2023-03-04T00:23:57.455Z,60.56
2023-03-04T00:27:22.336Z,60.94
2023-03-04T00:30:27.074Z,60.76
2023-03-04T00:33:34.065Z,60.96
2023-03-04T00:36:49.131Z,60.94
2023-03-04T00:39:59.332Z,60.74
2023-03-04T00:43:06.139Z,60.90
2023-03-04T00:46:13.772Z,61.25
2023-03-04T00:49:42.351Z,60.79
2023-03-04T00:53:09.678Z,60.58
2023-03-04T00:56:18.656Z,60.58
2023-03-04T00:59:25.410Z,60.12
2023-03-04T01:02:29.913Z,60.43
2023-03-04T01:05:42.331Z,60.63
2023-03-04T01:08:55.601Z,60.49
2023-03-04T01:15:27.249Z,60.65
2023-03-04T01:18:31.022Z,60.73
2023-03-04T01:21:37.236Z,60.71
2023-03-04T01:25:01.485Z,60.60
2023-03-04T01:28:10.596Z,60.83
2023-03-04T01:31:17.515Z,60.94
2023-03-04T01:34:23.802Z,60.89
2023-03-04T01:37:29.743Z,60.57
2023-03-04T01:40:40.050Z,60.67
2023-03-04T01:43:48.136Z,60.33
2023-03-04T01:46:56.050Z,60.46
2023-03-04T01:50:07.291Z,60.30
2023-03-04T01:53:22.120Z,60.49
2023-03-04T01:56:43.012Z,60.80
2023-03-04T02:00:24.075Z,60.82
2023-03-04T02:03:39.890Z,60.64
2023-03-04T02:06:48.188Z,60.76
2023-03-04T02:09:54.425Z,62.05
2023-03-04T02:13:11.584Z,62.78
2023-03-04T02:16:17.770Z,62.91
2023-03-04T02:19:42.602Z,62.21
2023-03-04T02:23:00.157Z,61.94
2023-03-04T02:26:19.404Z,61.84
2023-03-04T02:29:35.430Z,61.91
2023-03-04T02:32:42.678Z,61.52
2023-03-04T02:35:55.262Z,61.76
2023-03-04T02:39:07.933Z,61.60
2023-03-04T02:42:14.524Z,62.22
2023-03-04T02:45:35.522Z,61.69
2023-03-04T02:48:40.502Z,61.45
2023-03-04T02:51:46.337Z,61.18
2023-03-04T02:54:56.463Z,61.67
2023-03-04T02:58:06.140Z,61.93
2023-03-04T03:01:10.526Z,61.99
2023-03-04T03:04:35.157Z,61.53
2023-03-04T03:07:40.105Z,61.34
2023-03-04T03:10:52.280Z,60.95
2023-03-04T03:14:27.222Z,61.52
2023-03-04T03:17:40.393Z,61.40
2023-03-04T03:20:50.970Z,61.15
2023-03-04T03:24:01.964Z,61.38
2023-03-04T03:27:08.714Z,61.16
2023-03-04T03:30:18.017Z,61.28
2023-03-04T03:33:24.665Z,61.24
2023-03-04T03:36:30.083Z,60.97
2023-03-04T03:39:44.304Z,61.17
2023-03-04T03:42:48.632Z,61.01
2023-03-04T03:45:54.108Z,60.84
2023-03-04T03:48:58.652Z,60.50
2023-03-04T03:52:05.671Z,60.63
2023-03-04T03:55:14.147Z,60.91
2023-03-04T03:58:18.720Z,60.87
2023-03-04T04:01:38.617Z,61.03
2023-03-04T04:04:42.345Z,61.17
2023-03-04T04:07:48.519Z,60.71
2023-03-04T04:10:55.450Z,60.91
2023-03-04T04:14:07.679Z,60.72
2023-03-04T04:17:14.613Z,61.00
2023-03-04T04:20:26.360Z,60.70
2023-03-04T04:23:32.544Z,60.88
2023-03-04T04:26:43.391Z,60.79
2023-03-04T04:29:47.814Z,60.85
2023-03-04T04:32:55.790Z,60.72
2023-03-04T04:36:06.281Z,60.85
2023-03-04T04:39:16.529Z,61.86
2023-03-04T04:42:26.104Z,62.20
2023-03-04T04:45:34.801Z,61.93
2023-03-04T04:48:42.507Z,61.60
2023-03-04T04:51:52.480Z,62.65
2023-03-04T04:55:04.011Z,62.41
2023-03-04T04:58:12.680Z,63.80
2023-03-04T05:01:22.502Z,63.59
2023-03-04T05:04:31.101Z,63.26
2023-03-04T05:07:45.725Z,62.67
2023-03-04T05:10:56.484Z,62.03
2023-03-04T05:14:07.527Z,61.69
2023-03-04T05:17:17.356Z,61.66
2023-03-04T05:20:34.812Z,61.56
2023-03-04T05:23:44.342Z,61.32
2023-03-04T05:26:53.070Z,61.04
2023-03-04T05:30:47.303Z,60.86
2023-03-04T05:33:58.634Z,61.26
2023-03-04T05:37:40.108Z,60.81
2023-03-04T05:41:11.170Z,60.83
2023-03-04T05:49:09.124Z,60.56
2023-03-04T05:53:13.278Z,60.08
2023-03-04T05:57:15.441Z,60.43
2023-03-04T06:01:08.215Z,60.60
2023-03-04T06:08:50.456Z,60.49
2023-03-04T06:12:28.941Z,60.77
2023-03-04T06:17:03.444Z,60.40
2023-03-04T06:20:48.655Z,60.37
2023-03-04T06:24:24.506Z,60.60
2023-03-04T06:28:18.110Z,60.84
2023-03-04T06:32:40.168Z,60.46
2023-03-04T06:36:47.572Z,60.23
2023-03-04T06:41:12.230Z,60.52
2023-03-04T06:45:19.113Z,60.31
2023-03-04T06:49:20.301Z,60.87
2023-03-04T06:53:08.155Z,60.55
2023-03-04T06:57:21.958Z,60.03
2023-03-04T07:00:57.327Z,60.07
2023-03-04T07:04:35.274Z,60.07
2023-03-04T07:08:20.614Z,59.78
2023-03-04T07:12:53.095Z,59.90
2023-03-04T07:16:20.641Z,60.30
2023-03-04T07:19:57.334Z,60.05
2023-03-04T07:23:13.634Z,60.49
2023-03-04T07:26:59.073Z,60.07
2023-03-04T07:34:28.860Z,60.40
2023-03-04T07:38:39.289Z,60.08
2023-03-04T07:41:52.110Z,60.55
2023-03-04T07:45:26.452Z,61.33
2023-03-04T07:49:27.800Z,60.91
2023-03-04T07:53:12.655Z,60.75
2023-03-04T07:56:54.873Z,60.71
2023-03-04T08:00:48.659Z,60.03
2023-03-04T08:05:22.329Z,60.57
2023-03-04T08:14:09.706Z,60.20
2023-03-04T08:18:10.379Z,60.50
2023-03-04T08:22:16.504Z,60.65
2023-03-04T08:26:51.453Z,60.45
2023-03-04T08:31:01.919Z,61.24
2023-03-04T08:35:05.984Z,61.93
2023-03-04T08:39:23.572Z,61.24
2023-03-04T08:43:06.689Z,61.48
2023-03-04T08:47:54.861Z,61.22
2023-03-04T08:51:28.300Z,60.90
2023-03-04T08:55:27.796Z,60.78
2023-03-04T08:59:05.816Z,60.73
2023-03-04T09:03:18.964Z,60.46
2023-03-04T09:07:02.837Z,60.88
2023-03-04T09:10:25.005Z,60.65
2023-03-04T09:13:57.009Z,60.40
2023-03-04T09:17:51.022Z,60.04
2023-03-04T09:25:38.171Z,60.14
2023-03-04T09:29:32.376Z,59.39
2023-03-04T09:33:28.568Z,59.70
2023-03-04T09:37:51.070Z,59.16
2023-03-04T09:42:13.834Z,58.88
2023-03-04T09:46:09.118Z,58.81
2023-03-04T09:49:51.893Z,58.75
2023-03-04T09:53:42.894Z,58.04
2023-03-04T09:58:10.005Z,57.77
2023-03-04T10:02:18.133Z,57.90
2023-03-04T10:06:07.772Z,57.73
2023-03-04T10:09:54.302Z,57.43
2023-03-04T10:13:28.943Z,57.91
2023-03-04T10:17:40.560Z,57.87
2023-03-04T10:25:37.284Z,56.69
2023-03-04T10:29:49.095Z,56.07
2023-03-04T10:33:56.978Z,56.53
2023-03-04T10:37:30.418Z,55.71
2023-03-04T10:41:40.865Z,55.94
2023-03-04T10:45:02.651Z,54.94
2023-03-04T10:48:48.886Z,55.64
2023-03-04T10:52:16.764Z,55.79
2023-03-04T10:55:27.186Z,55.42
2023-03-04T10:58:33.797Z,54.96
2023-03-04T11:01:42.948Z,55.26
2023-03-04T11:05:27.451Z,54.56
2023-03-04T11:08:59.389Z,55.37
2023-03-04T11:13:16.689Z,54.75
2023-03-04T11:16:37.124Z,54.63
2023-03-04T11:19:46.686Z,54.28
2023-03-04T11:23:25.545Z,54.02
2023-03-04T11:26:52.331Z,53.32
2023-03-04T11:30:43.794Z,52.68
2023-03-04T11:34:23.644Z,52.25
2023-03-04T11:37:49.363Z,53.20
2023-03-04T11:41:20.994Z,53.14
2023-03-04T11:44:33.234Z,52.60
2023-03-04T11:48:08.200Z,51.92
2023-03-04T11:51:47.609Z,53.11
2023-03-04T11:55:29.917Z,53.00
2023-03-04T11:59:22.208Z,52.53
2023-03-04T12:03:05.899Z,53.06
2023-03-04T12:06:27.228Z,52.63
2023-03-04T12:10:14.662Z,52.41
2023-03-04T12:14:21.626Z,52.48
2023-03-04T12:18:20.804Z,52.14
2023-03-04T12:22:11.619Z,50.90
2023-03-04T12:26:12.789Z,52.15
2023-03-04T12:30:11.315Z,51.60
2023-03-04T12:34:49.511Z,50.27
2023-03-04T12:39:06.331Z,50.94
2023-03-04T12:42:54.609Z,51.78
2023-03-04T12:46:30.107Z,51.98
2023-03-04T12:50:29.617Z,52.46
2023-03-04T12:57:47.604Z,51.78
2023-03-04T13:01:36.334Z,52.04
2023-03-04T13:10:16.069Z,51.52
2023-03-04T13:14:21.908Z,51.75
2023-03-04T13:18:02.083Z,51.72
2023-03-04T13:21:42.703Z,52.06
2023-03-04T13:25:33.426Z,52.45
2023-03-04T13:34:44.980Z,52.00
2023-03-04T13:38:30.095Z,52.03
2023-03-04T13:47:07.931Z,50.21
2023-03-04T13:51:40.616Z,49.92
2023-03-04T14:00:38.087Z,50.41
2023-03-04T14:09:01.388Z,50.27
2023-03-04T14:12:41.321Z,50.57
2023-03-04T14:16:19.808Z,49.49
2023-03-04T14:20:39.050Z,49.87
2023-03-04T14:24:21.545Z,49.84
2023-03-04T14:27:50.122Z,49.60
2023-03-04T14:35:46.853Z,51.02
2023-03-04T14:39:15.096Z,51.16
2023-03-04T14:43:05.269Z,51.38
2023-03-04T14:46:24.178Z,51.31
2023-03-04T14:49:36.776Z,51.12
2023-03-04T14:53:07.768Z,50.69
2023-03-04T14:56:12.244Z,50.99
2023-03-04T14:59:54.211Z,50.65
2023-03-04T15:03:39.415Z,50.18
2023-03-04T15:07:03.183Z,50.59
2023-03-04T15:10:31.158Z,50.75
2023-03-04T15:15:02.482Z,51.43
2023-03-04T15:23:04.698Z,51.84
2023-03-04T15:26:14.152Z,51.81
2023-03-04T15:29:24.184Z,51.97
2023-03-04T15:32:31.522Z,52.07
2023-03-04T15:35:36.419Z,51.67
2023-03-04T15:38:43.392Z,51.77
2023-03-04T15:41:50.887Z,52.44
2023-03-04T15:44:57.235Z,52.37
2023-03-04T15:48:09.753Z,52.26
2023-03-04T15:51:18.253Z,51.90
2023-03-04T15:54:31.364Z,51.88
2023-03-04T15:57:37.366Z,52.38
2023-03-04T16:00:43.074Z,52.46
2023-03-04T16:03:47.180Z,52.91
2023-03-04T16:07:21.368Z,52.96
2023-03-04T16:10:33.209Z,53.61
2023-03-04T16:13:41.929Z,53.51
2023-03-04T16:16:47.052Z,53.15
2023-03-04T16:20:01.519Z,52.60
2023-03-04T16:23:15.489Z,52.49
2023-03-04T16:26:30.072Z,52.53
2023-03-04T16:29:39.368Z,52.30
2023-03-04T16:33:14.194Z,52.05
2023-03-04T16:36:22.347Z,52.40
2023-03-04T16:39:30.660Z,52.35
2023-03-04T16:42:38.190Z,52.24
2023-03-04T16:45:46.409Z,52.69
2023-03-04T16:49:04.333Z,52.84
2023-03-04T16:52:33.430Z,52.69
2023-03-04T16:56:09.069Z,53.20
2023-03-04T17:00:13.782Z,52.87
2023-03-04T17:03:55.111Z,52.94
2023-03-04T17:07:44.159Z,53.15
2023-03-04T17:10:58.093Z,52.97
2023-03-04T17:14:25.590Z,52.82
2023-03-04T17:18:04.577Z,52.63
2023-03-04T17:21:28.334Z,52.75
2023-03-04T17:24:34.188Z,53.19
2023-03-04T17:27:39.693Z,53.29
2023-03-04T17:30:56.828Z,53.42
2023-03-04T17:34:04.576Z,53.65
2023-03-04T17:37:45.112Z,53.45
2023-03-04T17:40:50.367Z,53.54
2023-03-04T17:44:20.784Z,53.37
2023-03-04T17:47:39.399Z,53.51
2023-03-04T17:50:52.985Z,53.30
2023-03-04T17:54:02.741Z,53.55
2023-03-04T17:57:14.113Z,53.45
2023-03-04T18:00:20.275Z,53.45
2023-03-04T18:03:25.449Z,54.02
2023-03-04T18:06:30.577Z,54.66
2023-03-04T18:10:09.402Z,54.67
2023-03-04T18:13:37.401Z,54.79
2023-03-04T18:17:09.521Z,54.76
2023-03-04T18:20:45.804Z,54.69
2023-03-04T18:24:13.281Z,55.38
2023-03-04T18:27:28.337Z,55.41
2023-03-04T18:30:35.684Z,55.38
2023-03-04T18:34:08.937Z,55.30
2023-03-04T18:38:17.307Z,55.47
2023-03-04T18:42:14.465Z,55.52
2023-03-04T18:46:04.002Z,55.81
2023-03-04T18:49:10.669Z,55.59
2023-03-04T18:52:17.543Z,55.31
2023-03-04T18:55:33.220Z,55.61
2023-03-04T18:58:42.860Z,55.67
2023-03-04T19:01:56.000Z,55.83
2023-03-04T19:05:08.010Z,55.62
2023-03-04T19:08:20.079Z,55.71
2023-03-04T19:11:49.937Z,56.18
2023-03-04T19:14:59.060Z,56.00
2023-03-04T19:18:09.477Z,56.85
2023-03-04T19:21:59.495Z,57.37
2023-03-04T19:25:06.482Z,57.07
2023-03-04T19:28:10.670Z,57.07
2023-03-04T19:31:34.580Z,56.67
2023-03-04T19:35:08.314Z,57.51
2023-03-04T19:38:51.223Z,56.51
2023-03-04T19:42:03.281Z,56.41
2023-03-04T19:45:10.528Z,57.51
2023-03-04T19:48:38.438Z,57.08
2023-03-04T19:55:50.586Z,56.50
2023-03-04T19:59:41.948Z,57.07
2023-03-04T20:07:40.716Z,57.11
2023-03-04T20:11:24.218Z,57.89
2023-03-04T20:19:39.314Z,57.76
2023-03-04T20:28:44.172Z,57.37
2023-03-04T20:32:51.630Z,57.17
2023-03-04T20:36:59.978Z,57.52
2023-03-04T20:40:30.550Z,57.25
2023-03-04T20:43:45.471Z,56.92
2023-03-04T20:51:00.886Z,58.73
2023-03-04T20:55:00.937Z,57.50
2023-03-04T20:58:26.843Z,57.19
2023-03-04T21:01:37.594Z,55.88
2023-03-04T21:05:03.623Z,57.05
2023-03-04T21:08:27.585Z,58.08
2023-03-04T21:11:59.672Z,57.55
2023-03-04T21:15:31.028Z,56.89
2023-03-04T21:18:46.612Z,56.63
2023-03-04T21:22:21.394Z,55.86
2023-03-04T21:25:57.149Z,55.76
2023-03-04T21:29:50.455Z,57.33
2023-03-04T21:37:12.349Z,56.48
2023-03-04T21:40:57.541Z,57.26
2023-03-04T21:44:28.857Z,57.21
2023-03-04T21:48:45.051Z,56.60
2023-03-04T21:52:06.118Z,55.76
2023-03-04T21:55:45.974Z,55.28
2023-03-04T22:03:15.788Z,56.20
2023-03-04T22:07:12.906Z,55.49
2023-03-04T22:11:07.732Z,55.00
2023-03-04T22:14:55.432Z,54.97
2023-03-04T22:17:59.966Z,56.02
2023-03-04T22:21:28.755Z,54.82
2023-03-04T22:24:55.473Z,55.98
2023-03-04T22:28:18.800Z,56.06
2023-03-04T22:31:46.918Z,55.87
2023-03-04T22:36:02.467Z,55.27
2023-03-04T22:45:13.778Z,55.61
2023-03-04T22:49:12.403Z,55.21
2023-03-04T22:54:00.723Z,56.53
2023-03-04T22:58:15.792Z,56.66
2023-03-04T23:02:02.954Z,55.92
2023-03-04T23:06:03.802Z,55.62
2023-03-04T23:09:54.709Z,54.40
2023-03-04T23:13:45.606Z,55.14
2023-03-04T23:17:01.398Z,55.08
2023-03-04T23:20:16.300Z,54.90
2023-03-04T23:23:28.007Z,55.58
2023-03-04T23:26:46.472Z,55.85
2023-03-04T23:29:58.148Z,55.45
2023-03-04T23:33:10.667Z,55.23
2023-03-04T23:36:31.217Z,54.94
2023-03-04T23:39:38.910Z,54.50
2023-03-04T23:42:45.499Z,55.25
2023-03-04T23:46:15.595Z,55.04
2023-03-04T23:49:33.454Z,54.63
2023-03-04T23:53:26.413Z,54.24
2023-03-04T23:56:42.150Z,54.00
2023-03-04T23:59:52.116Z,54.36
